createdAt,value
2022-07-29T00:02:16.802Z,100900.28
2022-07-29T00:04:43.613Z,100905.00
2022-07-29T00:07:10.485Z,100896.88
2022-07-29T00:09:41.944Z,100900.50
2022-07-29T00:12:25.612Z,100888.88
2022-07-29T00:14:55.489Z,100895.06
2022-07-29T00:17:22.603Z,100883.78
2022-07-29T00:19:49.308Z,100887.91
2022-07-29T00:22:16.504Z,100887.41
2022-07-29T00:24:43.187Z,100890.06
2022-07-29T00:27:09.936Z,100895.50
2022-07-29T00:29:36.967Z,100900.00
2022-07-29T00:32:04.335Z,100905.44
2022-07-29T00:34:50.869Z,100898.50
2022-07-29T00:37:17.781Z,100895.31
2022-07-29T00:39:44.519Z,100892.97
2022-07-29T00:42:11.819Z,100895.88
2022-07-29T00:44:42.684Z,100891.59
2022-07-29T00:47:11.861Z,100896.28
2022-07-29T00:49:40.306Z,100888.72
2022-07-29T00:52:07.515Z,100887.78
2022-07-29T00:54:35.166Z,100875.94
2022-07-29T00:57:04.394Z,100877.78
2022-07-29T00:59:34.779Z,100880.31
2022-07-29T01:02:04.137Z,100884.69
2022-07-29T01:04:32.280Z,100870.63
2022-07-29T01:07:00.383Z,100879.34
2022-07-29T01:09:42.086Z,100869.66
2022-07-29T01:12:20.274Z,100874.00
2022-07-29T01:14:48.867Z,100865.91
2022-07-29T01:17:27.241Z,100864.00
2022-07-29T01:20:07.345Z,100865.69
2022-07-29T01:23:01.225Z,100865.81
2022-07-29T01:25:35.607Z,100867.41
2022-07-29T01:28:24.098Z,100868.38
2022-07-29T01:30:54.984Z,100874.88
2022-07-29T01:33:46.730Z,100876.28
2022-07-29T01:36:19.315Z,100870.53
2022-07-29T01:38:58.090Z,100877.97
2022-07-29T01:41:28.030Z,100878.94
2022-07-29T01:44:04.049Z,100873.94
2022-07-29T01:46:37.185Z,100873.94
2022-07-29T01:49:12.813Z,100878.53
2022-07-29T01:51:47.400Z,100864.34
2022-07-29T01:54:40.030Z,100865.44
2022-07-29T01:57:09.372Z,100870.66
2022-07-29T01:59:38.321Z,100866.78
2022-07-29T02:02:09.485Z,100865.84
2022-07-29T02:04:37.859Z,100863.91
2022-07-29T02:07:08.156Z,100867.88
2022-07-29T02:09:37.476Z,100866.56
2022-07-29T02:12:05.679Z,100869.75
2022-07-29T02:14:37.198Z,100869.88
2022-07-29T02:17:04.371Z,100867.97
2022-07-29T02:19:34.158Z,100868.06
2022-07-29T02:22:02.292Z,100868.19
2022-07-29T02:24:30.929Z,100868.50
2022-07-29T02:27:00.219Z,100855.41
2022-07-29T02:29:29.583Z,100867.00
2022-07-29T02:31:59.339Z,100866.47
2022-07-29T02:34:26.801Z,100867.53
2022-07-29T02:36:55.319Z,100867.94
2022-07-29T02:39:23.759Z,100872.63
2022-07-29T02:41:58.755Z,100872.84
2022-07-29T02:44:31.273Z,100868.56
2022-07-29T02:47:22.128Z,100874.84
2022-07-29T02:49:56.865Z,100871.53
2022-07-29T02:52:44.735Z,100870.25
2022-07-29T02:55:23.992Z,100880.59
2022-07-29T02:58:14.616Z,100865.69
2022-07-29T03:00:42.265Z,100864.72
2022-07-29T03:03:13.416Z,100862.91
2022-07-29T03:05:41.490Z,100861.66
2022-07-29T03:08:11.538Z,100865.25
2022-07-29T03:10:46.545Z,100866.00
2022-07-29T03:13:14.655Z,100868.34
2022-07-29T03:15:45.234Z,100878.06
2022-07-29T03:18:12.218Z,100864.75
2022-07-29T03:20:40.062Z,100874.44
2022-07-29T03:23:06.739Z,100868.34
2022-07-29T03:25:33.474Z,100875.50
2022-07-29T03:28:00.468Z,100868.34
2022-07-29T03:30:27.140Z,100874.44
2022-07-29T03:32:54.572Z,100871.78
2022-07-29T03:35:25.853Z,100865.56
2022-07-29T03:37:52.698Z,100871.00
2022-07-29T03:40:27.160Z,100872.09
2022-07-29T03:42:55.165Z,100871.22
2022-07-29T03:45:24.131Z,100876.84
2022-07-29T03:48:00.317Z,100875.28
2022-07-29T03:50:29.824Z,100885.25
2022-07-29T03:52:56.819Z,100886.44
2022-07-29T03:55:24.644Z,100885.03
2022-07-29T03:57:52.084Z,100874.50
2022-07-29T04:00:19.617Z,100868.63
2022-07-29T04:02:49.464Z,100873.22
2022-07-29T04:05:17.003Z,100874.16
2022-07-29T04:07:50.073Z,100873.31
2022-07-29T04:10:30.679Z,100879.69
2022-07-29T04:13:00.548Z,100876.50
2022-07-29T04:15:31.571Z,100878.38
2022-07-29T04:17:59.545Z,100880.41
2022-07-29T04:20:26.905Z,100884.41
2022-07-29T04:22:53.580Z,100879.09
2022-07-29T04:25:20.375Z,100872.00
2022-07-29T04:28:02.010Z,100869.44
2022-07-29T04:30:28.986Z,100875.50
2022-07-29T04:32:55.586Z,100873.47
2022-07-29T04:35:22.464Z,100872.53
2022-07-29T04:37:49.150Z,100879.47
2022-07-29T04:40:16.499Z,100884.78
2022-07-29T04:42:47.227Z,100871.47
2022-07-29T04:45:15.249Z,100864.88
2022-07-29T04:47:43.211Z,100871.72
2022-07-29T04:50:10.887Z,100868.00
2022-07-29T04:52:37.731Z,100862.56
2022-07-29T04:55:06.592Z,100866.19
2022-07-29T04:57:33.558Z,100869.38
2022-07-29T05:00:00.310Z,100868.53
2022-07-29T05:02:27.168Z,100872.91
2022-07-29T05:04:53.983Z,100877.38
2022-07-29T05:07:20.867Z,100879.19
2022-07-29T05:09:48.237Z,100874.28
2022-07-29T05:12:14.998Z,100875.88
2022-07-29T05:14:41.738Z,100876.00
2022-07-29T05:17:08.486Z,100879.59
2022-07-29T05:19:39.862Z,100887.88
2022-07-29T05:22:07.098Z,100887.25
2022-07-29T05:24:33.787Z,100889.34
2022-07-29T05:27:00.639Z,100888.06
2022-07-29T05:29:42.726Z,100886.63
2022-07-29T05:32:11.915Z,100897.47
2022-07-29T05:34:38.622Z,100894.19
2022-07-29T05:37:18.874Z,100897.88
2022-07-29T05:39:48.672Z,100904.06
2022-07-29T05:42:17.477Z,100907.47
2022-07-29T05:44:44.348Z,100897.78
2022-07-29T05:47:10.982Z,100897.03
2022-07-29T05:49:37.683Z,100906.44
2022-07-29T05:52:04.731Z,100898.34
2022-07-29T05:54:31.707Z,100899.94
2022-07-29T05:56:58.315Z,100910.38
2022-07-29T05:59:30.090Z,100906.69
2022-07-29T06:01:58.324Z,100913.38
2022-07-29T06:04:25.451Z,100906.06
2022-07-29T06:06:52.196Z,100900.44
2022-07-29T06:09:19.347Z,100906.31
2022-07-29T06:11:46.127Z,100897.72
2022-07-29T06:14:12.915Z,100897.31
2022-07-29T06:16:39.906Z,100904.78
2022-07-29T06:19:06.711Z,100904.47
2022-07-29T06:21:33.486Z,100898.94
2022-07-29T06:24:00.538Z,100891.69
2022-07-29T06:26:30.961Z,100898.31
2022-07-29T06:28:58.177Z,100905.91
2022-07-29T06:31:25.196Z,100904.72
2022-07-29T06:33:52.011Z,100906.97
2022-07-29T06:36:21.409Z,100915.38
2022-07-29T06:38:50.466Z,100917.81
2022-07-29T06:41:19.163Z,100922.94
2022-07-29T06:43:51.891Z,100918.16
2022-07-29T06:46:22.452Z,100913.34
2022-07-29T06:48:49.851Z,100911.31
2022-07-29T06:51:22.205Z,100914.31
2022-07-29T06:54:01.563Z,100917.50
2022-07-29T06:56:40.310Z,100929.53
2022-07-29T06:59:11.810Z,100925.59
2022-07-29T07:01:40.693Z,100927.19
2022-07-29T07:04:09.568Z,100921.53
2022-07-29T07:06:36.667Z,100917.28
2022-07-29T07:09:03.621Z,100922.72
2022-07-29T07:11:30.393Z,100921.75
2022-07-29T07:14:02.586Z,100929.53
2022-07-29T07:16:30.169Z,100932.84
2022-07-29T07:18:56.913Z,100926.22
2022-07-29T07:21:23.870Z,100933.03
2022-07-29T07:23:50.579Z,100931.97
2022-07-29T07:26:17.246Z,100929.91
2022-07-29T07:28:44.229Z,100927.78
2022-07-29T07:31:11.538Z,100922.97
2022-07-29T07:33:38.384Z,100920.19
2022-07-29T07:36:05.521Z,100926.78
2022-07-29T07:38:32.100Z,100927.56
2022-07-29T07:40:59.778Z,100922.00
2022-07-29T07:43:26.648Z,100926.13
2022-07-29T07:45:53.861Z,100923.34
2022-07-29T07:48:20.609Z,100932.63
2022-07-29T07:50:47.743Z,100924.50
2022-07-29T07:53:14.593Z,100934.00
2022-07-29T07:58:30.402Z,100938.13
2022-07-29T08:00:57.071Z,100930.84
2022-07-29T08:03:23.808Z,100935.84
2022-07-29T08:05:52.842Z,100937.31
2022-07-29T08:08:19.694Z,100938.06
2022-07-29T08:10:57.155Z,100936.25
2022-07-29T08:13:29.183Z,100944.03
2022-07-29T08:16:00.773Z,100941.03
2022-07-29T08:18:31.873Z,100933.75
2022-07-29T08:20:59.636Z,100941.41
2022-07-29T08:23:31.576Z,100937.91
2022-07-29T08:26:01.460Z,100949.91
2022-07-29T08:28:28.022Z,100938.28
2022-07-29T08:30:54.745Z,100937.94
2022-07-29T08:33:21.687Z,100944.72
2022-07-29T08:35:48.379Z,100935.66
2022-07-29T08:38:15.135Z,100942.47
2022-07-29T08:40:41.915Z,100939.78
2022-07-29T08:43:10.054Z,100937.00
2022-07-29T08:45:48.554Z,100936.03
2022-07-29T08:48:18.220Z,100938.34
2022-07-29T08:50:46.090Z,100934.59
2022-07-29T08:53:15.078Z,100931.09
2022-07-29T08:55:44.434Z,100936.72
2022-07-29T08:58:12.071Z,100934.28
2022-07-29T09:00:57.866Z,100931.28
2022-07-29T09:03:28.417Z,100939.66
2022-07-29T09:05:55.418Z,100941.00
2022-07-29T09:08:22.973Z,100931.16
2022-07-29T09:10:50.248Z,100935.44
2022-07-29T09:13:16.867Z,100935.31
2022-07-29T09:15:43.742Z,100935.78
2022-07-29T09:18:28.930Z,100928.53
2022-07-29T09:21:16.213Z,100937.63
2022-07-29T09:24:01.075Z,100943.38
2022-07-29T09:26:32.154Z,100940.06
2022-07-29T09:29:00.139Z,100938.47
2022-07-29T09:31:51.157Z,100935.56
2022-07-29T09:34:29.429Z,100935.19
2022-07-29T09:36:57.442Z,100933.38
2022-07-29T09:39:32.852Z,100931.78
2022-07-29T09:42:02.101Z,100927.81
2022-07-29T09:44:42.339Z,100927.28
2022-07-29T09:47:09.564Z,100923.41
2022-07-29T09:49:50.836Z,100920.34
2022-07-29T09:52:17.787Z,100913.03
2022-07-29T09:54:45.010Z,100917.28
2022-07-29T09:57:30.533Z,100916.84
2022-07-29T10:00:01.025Z,100915.72
2022-07-29T10:02:32.462Z,100912.91
2022-07-29T10:05:00.522Z,100914.75
2022-07-29T10:07:27.674Z,100917.16
2022-07-29T10:09:56.754Z,100905.38
2022-07-29T10:12:25.020Z,100909.34
2022-07-29T10:14:52.066Z,100913.75
2022-07-29T10:17:20.367Z,100907.75
2022-07-29T10:19:47.165Z,100912.53
2022-07-29T10:22:15.057Z,100914.81
2022-07-29T10:24:42.349Z,100911.28
2022-07-29T10:27:10.323Z,100909.94
2022-07-29T10:29:37.318Z,100902.59
2022-07-29T10:32:31.768Z,100917.44
2022-07-29T10:35:08.351Z,100913.53
2022-07-29T10:38:03.654Z,100920.22
2022-07-29T10:41:09.994Z,100917.41
2022-07-29T10:43:45.149Z,100918.97
2022-07-29T10:46:15.539Z,100915.19
2022-07-29T10:49:10.466Z,100922.25
2022-07-29T10:52:02.250Z,100922.81
2022-07-29T10:54:52.200Z,100919.75
2022-07-29T10:57:25.626Z,100925.38
2022-07-29T11:00:16.721Z,100913.41
2022-07-29T11:02:45.926Z,100913.84
2022-07-29T11:05:20.680Z,100905.69
2022-07-29T11:08:27.893Z,100910.66
2022-07-29T11:11:22.231Z,100917.19
2022-07-29T11:13:52.369Z,100911.56
2022-07-29T11:16:24.922Z,100919.09
2022-07-29T11:19:26.308Z,100920.53
2022-07-29T11:21:58.257Z,100910.97
2022-07-29T11:24:30.270Z,100913.25
2022-07-29T11:27:20.095Z,100923.56
2022-07-29T11:29:56.354Z,100905.66
2022-07-29T11:32:25.762Z,100919.13
2022-07-29T11:35:36.920Z,100924.78
2022-07-29T11:38:23.898Z,100916.06
2022-07-29T11:41:26.054Z,100916.50
2022-07-29T11:43:57.144Z,100910.63
2022-07-29T11:46:50.186Z,100917.16
2022-07-29T11:49:31.507Z,100905.75
2022-07-29T11:52:02.365Z,100893.47
2022-07-29T11:54:50.882Z,100891.94
2022-07-29T11:57:22.780Z,100903.81
2022-07-29T12:00:09.695Z,100898.47
2022-07-29T12:02:40.779Z,100900.47
2022-07-29T12:05:10.750Z,100899.03
2022-07-29T12:07:39.299Z,100893.81
2022-07-29T12:10:11.617Z,100903.00
2022-07-29T12:12:53.736Z,100904.53
2022-07-29T12:15:46.310Z,100902.97
2022-07-29T12:18:18.600Z,100901.16
2022-07-29T12:20:45.959Z,100905.09
2022-07-29T12:23:13.340Z,100896.63
2022-07-29T12:25:44.387Z,100886.47
2022-07-29T12:28:26.879Z,100887.03
2022-07-29T12:30:54.486Z,100887.47
2022-07-29T12:33:21.196Z,100888.34
2022-07-29T12:36:06.073Z,100893.28
2022-07-29T12:38:37.610Z,100886.50
2022-07-29T12:41:05.019Z,100878.44
2022-07-29T12:43:32.304Z,100882.53
2022-07-29T12:46:12.433Z,100881.72
2022-07-29T12:48:41.192Z,100883.97
2022-07-29T12:51:09.814Z,100884.94
2022-07-29T12:53:37.975Z,100896.66
2022-07-29T12:56:20.786Z,100894.53
2022-07-29T12:58:52.829Z,100888.16
2022-07-29T13:01:21.042Z,100870.44
2022-07-29T13:03:57.318Z,100878.88
2022-07-29T13:06:41.345Z,100877.28
2022-07-29T13:09:20.113Z,100872.59
2022-07-29T13:11:49.350Z,100869.44
2022-07-29T13:14:40.145Z,100861.78
2022-07-29T13:17:09.819Z,100872.94
2022-07-29T13:20:13.439Z,100869.94
2022-07-29T13:22:42.229Z,100863.66
2022-07-29T13:25:10.664Z,100859.66
2022-07-29T13:27:39.413Z,100855.13
2022-07-29T13:30:09.410Z,100859.97
2022-07-29T13:32:37.313Z,100866.72
2022-07-29T13:35:07.287Z,100869.53
2022-07-29T13:37:36.067Z,100871.47
2022-07-29T13:40:04.403Z,100869.56
2022-07-29T13:42:32.646Z,100870.34
2022-07-29T13:44:59.862Z,100875.13
2022-07-29T13:47:32.541Z,100869.50
2022-07-29T13:50:03.124Z,100868.22
2022-07-29T13:52:29.983Z,100872.56
2022-07-29T13:54:57.338Z,100872.63
2022-07-29T13:57:24.291Z,100874.56
2022-07-29T13:59:54.451Z,100878.81
2022-07-29T14:02:21.581Z,100869.31
2022-07-29T14:04:53.451Z,100885.19
2022-07-29T14:07:20.078Z,100873.47
2022-07-29T14:09:46.822Z,100874.03
2022-07-29T14:12:13.915Z,100879.19
2022-07-29T14:14:40.746Z,100873.22
2022-07-29T14:17:07.825Z,100871.09
2022-07-29T14:19:36.843Z,100870.41
2022-07-29T14:22:05.302Z,100874.44
2022-07-29T14:24:32.328Z,100869.69
2022-07-29T14:26:59.418Z,100863.84
2022-07-29T14:29:35.281Z,100878.09
2022-07-29T14:32:08.918Z,100869.41
2022-07-29T14:34:39.310Z,100878.44
2022-07-29T14:37:07.071Z,100875.34
2022-07-29T14:39:38.126Z,100881.22
2022-07-29T14:42:09.808Z,100869.88
2022-07-29T14:44:39.209Z,100868.72
2022-07-29T14:47:08.065Z,100861.84
2022-07-29T14:49:35.822Z,100863.00
2022-07-29T14:52:03.075Z,100863.94
2022-07-29T14:54:29.922Z,100862.16
2022-07-29T14:56:58.427Z,100852.31
2022-07-29T14:59:26.263Z,100851.19
2022-07-29T15:01:53.237Z,100855.59
2022-07-29T15:04:20.138Z,100845.16
2022-07-29T15:06:46.987Z,100844.00
2022-07-29T15:09:13.757Z,100840.09
2022-07-29T15:11:40.386Z,100847.50
2022-07-29T15:14:07.635Z,100848.16
2022-07-29T15:16:37.132Z,100843.06
2022-07-29T15:19:04.713Z,100835.97
2022-07-29T15:21:31.472Z,100833.13
2022-07-29T15:23:58.209Z,100820.66
2022-07-29T15:26:25.081Z,100828.03
2022-07-29T15:28:52.146Z,100822.28
2022-07-29T15:31:19.907Z,100834.06
2022-07-29T15:33:46.800Z,100841.81
2022-07-29T15:36:35.688Z,100844.81
2022-07-29T15:39:00.783Z,100843.22
2022-07-29T15:41:27.687Z,100856.47
2022-07-29T15:43:54.379Z,100853.91
2022-07-29T15:46:40.536Z,100856.78
2022-07-29T15:49:08.495Z,100846.47
2022-07-29T15:51:35.709Z,100849.31
2022-07-29T15:54:04.305Z,100855.00
2022-07-29T15:56:31.761Z,100855.31
2022-07-29T15:58:58.688Z,100849.41
2022-07-29T16:01:25.692Z,100851.44
2022-07-29T16:03:52.972Z,100841.78
2022-07-29T16:06:20.025Z,100846.50
2022-07-29T16:08:46.976Z,100852.88
2022-07-29T16:11:13.650Z,100846.09
2022-07-29T16:13:40.524Z,100846.25
2022-07-29T16:16:07.531Z,100842.72
2022-07-29T16:18:34.769Z,100842.19
2022-07-29T16:21:01.576Z,100836.97
2022-07-29T16:23:28.493Z,100844.03
2022-07-29T16:26:00.531Z,100838.09
2022-07-29T16:28:28.883Z,100831.72
2022-07-29T16:30:55.730Z,100839.09
2022-07-29T16:33:22.360Z,100837.56
2022-07-29T16:35:49.595Z,100844.78
2022-07-29T16:38:16.538Z,100835.03
2022-07-29T16:40:43.382Z,100836.56
2022-07-29T16:43:10.054Z,100840.81
2022-07-29T16:45:45.562Z,100830.03
2022-07-29T16:48:14.012Z,100837.13
2022-07-29T16:50:43.395Z,100836.09
2022-07-29T16:53:10.886Z,100830.72
2022-07-29T16:55:38.209Z,100841.03
2022-07-29T16:58:05.510Z,100839.03
2022-07-29T17:00:32.270Z,100840.41
2022-07-29T17:03:00.067Z,100839.09
2022-07-29T17:05:29.899Z,100839.63
2022-07-29T17:08:16.772Z,100842.16
2022-07-29T17:10:43.691Z,100844.19
2022-07-29T17:13:10.448Z,100842.25
2022-07-29T17:15:37.239Z,100844.59
2022-07-29T17:18:12.502Z,100849.56
2022-07-29T17:20:41.487Z,100842.81
2022-07-29T17:23:08.377Z,100845.66
2022-07-29T17:25:35.211Z,100844.94
2022-07-29T17:28:02.004Z,100844.09
2022-07-29T17:30:29.989Z,100842.25
2022-07-29T17:32:56.946Z,100850.34
2022-07-29T17:35:42.896Z,100853.19
2022-07-29T17:38:09.881Z,100839.03
2022-07-29T17:40:37.242Z,100840.88
2022-07-29T17:43:04.884Z,100838.34
2022-07-29T17:45:49.914Z,100836.66
2022-07-29T17:48:18.240Z,100828.56
2022-07-29T17:50:45.614Z,100824.88
2022-07-29T17:53:15.838Z,100827.56
2022-07-29T17:55:45.848Z,100827.41
2022-07-29T17:58:12.561Z,100830.44
2022-07-29T18:00:39.470Z,100835.66
2022-07-29T18:03:07.724Z,100841.19
2022-07-29T18:05:35.118Z,100834.41
2022-07-29T18:08:02.019Z,100826.63
2022-07-29T18:10:29.168Z,100841.81
2022-07-29T18:12:55.737Z,100830.50
2022-07-29T18:15:22.949Z,100829.47
2022-07-29T18:17:57.519Z,100827.47
2022-07-29T18:20:26.164Z,100826.19
2022-07-29T18:22:53.144Z,100825.56
2022-07-29T18:25:19.890Z,100822.31
2022-07-29T18:27:46.483Z,100816.78
2022-07-29T18:30:15.321Z,100820.50
2022-07-29T18:32:50.548Z,100813.56
2022-07-29T18:35:26.488Z,100815.00
2022-07-29T18:38:01.842Z,100821.56
2022-07-29T18:40:29.733Z,100828.25
2022-07-29T18:42:56.645Z,100828.88
2022-07-29T18:45:23.318Z,100830.00
2022-07-29T18:47:56.090Z,100831.34
2022-07-29T18:50:28.815Z,100826.41
2022-07-29T18:52:58.785Z,100821.47
2022-07-29T18:55:26.526Z,100826.16
2022-07-29T18:57:56.417Z,100819.53
2022-07-29T19:00:24.616Z,100821.53
2022-07-29T19:02:52.582Z,100834.28
2022-07-29T19:05:19.442Z,100833.66
2022-07-29T19:07:46.190Z,100832.63
2022-07-29T19:10:13.595Z,100840.88
2022-07-29T19:15:08.284Z,100856.38
2022-07-29T19:17:35.148Z,100849.06
2022-07-29T19:20:02.563Z,100858.41
2022-07-29T19:22:29.317Z,100860.72
2022-07-29T19:24:56.012Z,100851.09
2022-07-29T19:27:22.753Z,100858.75
2022-07-29T19:29:49.588Z,100862.59
2022-07-29T19:32:24.960Z,100856.81
2022-07-29T19:35:11.570Z,100859.91
2022-07-29T19:37:38.278Z,100865.72
2022-07-29T19:40:06.480Z,100871.53
2022-07-29T19:42:33.162Z,100877.69
2022-07-29T19:45:00.019Z,100877.00
2022-07-29T19:47:26.808Z,100887.88
2022-07-29T19:49:53.751Z,100888.47
2022-07-29T19:52:20.497Z,100891.03
2022-07-29T19:54:47.230Z,100885.22
2022-07-29T19:57:14.076Z,100892.31
2022-07-29T19:59:40.950Z,100892.72
2022-07-29T20:02:10.865Z,100894.69
2022-07-29T20:04:38.726Z,100894.13
2022-07-29T20:07:06.656Z,100896.97
2022-07-29T20:09:33.475Z,100892.28
2022-07-29T20:12:00.154Z,100892.81
2022-07-29T20:14:27.008Z,100889.59
2022-07-29T20:16:54.540Z,100892.97
2022-07-29T20:19:21.595Z,100895.22
2022-07-29T20:21:48.436Z,100905.25
2022-07-29T20:24:15.273Z,100912.19
2022-07-29T20:26:42.165Z,100910.19
2022-07-29T20:29:09.198Z,100910.59
2022-07-29T20:31:36.250Z,100910.88
2022-07-29T20:34:03.527Z,100921.03
2022-07-29T20:36:30.517Z,100921.19
2022-07-29T20:38:59.932Z,100920.00
2022-07-29T20:41:27.159Z,100919.84
2022-07-29T20:43:53.865Z,100924.06
2022-07-29T20:46:21.302Z,100919.31
2022-07-29T20:48:48.236Z,100925.22
2022-07-29T20:51:14.998Z,100919.44
2022-07-29T20:53:42.014Z,100920.22
2022-07-29T20:56:08.842Z,100926.00
2022-07-29T20:58:36.508Z,100930.66
2022-07-29T21:01:04.173Z,100923.97
2022-07-29T21:03:31.359Z,100927.75
2022-07-29T21:05:58.956Z,100923.53
2022-07-29T21:08:26.280Z,100931.00
2022-07-29T21:10:53.790Z,100929.69
2022-07-29T21:13:22.423Z,100931.78
2022-07-29T21:15:50.690Z,100940.22
2022-07-29T21:18:37.031Z,100937.25
2022-07-29T21:21:04.999Z,100937.84
2022-07-29T21:23:31.764Z,100933.88
2022-07-29T21:25:59.002Z,100938.78
2022-07-29T21:28:41.270Z,100937.28
2022-07-29T21:31:11.245Z,100943.03
2022-07-29T21:33:39.937Z,100941.72
2022-07-29T21:36:35.528Z,100946.22
2022-07-29T21:38:54.190Z,100935.06
2022-07-29T21:41:21.904Z,100940.41
2022-07-29T21:43:48.591Z,100935.44
2022-07-29T21:46:17.086Z,100934.94
2022-07-29T21:48:44.634Z,100930.09
2022-07-29T21:51:11.595Z,100939.63
2022-07-29T21:53:38.470Z,100937.34
2022-07-29T21:56:09.431Z,100927.72
2022-07-29T21:58:41.788Z,100930.78
2022-07-29T22:01:08.533Z,100927.63
2022-07-29T22:03:35.170Z,100927.28
2022-07-29T22:06:02.031Z,100928.38
2022-07-29T22:08:28.707Z,100926.91
2022-07-29T22:10:55.478Z,100923.41
2022-07-29T22:13:22.240Z,100924.59
2022-07-29T22:15:48.951Z,100919.66
2022-07-29T22:18:21.137Z,100917.22
2022-07-29T22:20:49.754Z,100913.81
2022-07-29T22:23:16.582Z,100912.59
2022-07-29T22:25:43.279Z,100920.75
2022-07-29T22:28:10.163Z,100925.09
2022-07-29T22:30:36.916Z,100929.00
2022-07-29T22:33:03.720Z,100928.25
2022-07-29T22:35:30.577Z,100929.25
2022-07-29T22:37:57.229Z,100932.06
2022-07-29T22:40:23.981Z,100929.75
2022-07-29T22:42:57.633Z,100939.44
2022-07-29T22:45:24.549Z,100936.91
2022-07-29T22:47:55.934Z,100936.06
2022-07-29T22:50:25.018Z,100940.81
2022-07-29T22:52:51.983Z,100937.38
2022-07-29T22:55:18.708Z,100926.91
2022-07-29T22:57:45.586Z,100939.56
2022-07-29T23:00:13.564Z,100927.56
2022-07-29T23:02:41.437Z,100935.94
2022-07-29T23:05:09.154Z,100929.59
2022-07-29T23:07:36.183Z,100931.44
2022-07-29T23:10:04.156Z,100929.59
2022-07-29T23:12:30.888Z,100929.84
2022-07-29T23:14:57.625Z,100931.69
2022-07-29T23:17:24.368Z,100923.06
2022-07-29T23:19:51.422Z,100920.50
2022-07-29T23:22:18.521Z,100920.50
2022-07-29T23:24:45.408Z,100923.41
2022-07-29T23:27:12.295Z,100922.31
2022-07-29T23:29:38.985Z,100922.66
2022-07-29T23:32:05.964Z,100920.75
2022-07-29T23:34:32.670Z,100914.88
2022-07-29T23:36:59.627Z,100916.00
2022-07-29T23:39:26.460Z,100911.97
2022-07-29T23:41:53.390Z,100913.03
2022-07-29T23:44:20.240Z,100916.00
2022-07-29T23:46:46.970Z,100917.78
2022-07-29T23:49:14.703Z,100917.19
2022-07-29T23:51:41.388Z,100918.66
2022-07-29T23:54:08.053Z,100928.38
2022-07-29T23:56:34.898Z,100921.94
2022-07-29T23:59:01.732Z,100923.63
